Time;durP1;ratioP1;P1;durP2;ratioP2;P2;SDS_P1;SDS_P2;PMS_P1;PMS_P2;Temp;Humidity;BMP_temperature;BMP_pressure;BME280_temperature;BME280_humidity;BME280_pressure;Samples;Min_cycle;Max_cycle;Signal;HPM_P1;HPM_P2
2024/01/02 00:01:15;;;;;;;3.20;0.45;;;5.30;1.00;;;;;;5066244;28;20057;-87
2024/01/02 00:03:40;;;;;;;9.30;1.95;;;5.40;99.90;;;;;;5068484;28;20048;-88
2024/01/02 00:06:06;;;;;;;0.00;0.00;;;5.30;99.90;;;;;;5091113;28;20408;-87
2024/01/02 00:08:32;;;;;;;0.32;0.22;;;5.40;94.80;;;;;;5093331;28;20117;-87
2024/01/02 00:10:57;;;;;;;1.67;1.15;;;5.50;1.00;;;;;;5093361;28;20047;-87
2024/01/02 00:13:23;;;;;;;1.65;1.35;;;6.40;99.90;;;;;;5068849;28;20052;-87
2024/01/02 00:15:48;;;;;;;1.20;0.80;;;5.70;57.30;;;;;;5087960;28;20076;-88
2024/01/02 00:18:14;;;;;;;0.90;0.63;;;5.60;1.00;;;;;;5090737;28;20089;-87
2024/01/02 00:20:40;;;;;;;8.57;1.65;;;5.70;12.50;;;;;;5093026;28;20547;-87
2024/01/02 00:23:06;;;;;;;0.00;0.00;;;5.70;28.90;;;;;;5094718;28;20048;-87
2024/01/02 00:25:31;;;;;;;0.00;0.00;;;5.70;34.60;;;;;;5098626;28;20047;-87
2024/01/02 00:27:58;;;;;;;0.17;0.17;;;5.70;99.90;;;;;;5087659;28;20086;-87
2024/01/02 00:30:24;;;;;;;0.00;0.00;;;5.70;1.00;;;;;;5092421;28;20127;-87
2024/01/02 00:32:49;;;;;;;0.00;0.00;;;5.90;99.90;;;;;;5106441;28;20127;-87
2024/01/02 00:35:16;;;;;;;6.25;2.45;;;6.10;99.90;;;;;;5070807;28;20071;-87
2024/01/02 00:37:41;;;;;;;1.10;0.70;;;5.70;1.00;;;;;;5073549;28;20739;-87
2024/01/02 00:40:08;;;;;;;0.00;0.00;;;5.80;1.00;;;;;;5060722;28;20358;-88
2024/01/02 00:42:33;;;;;;;0.00;0.00;;;5.80;99.90;;;;;;5094622;28;20097;-87
2024/01/02 00:44:59;;;;;;;0.20;0.20;;;5.80;1.00;;;;;;5071315;28;20039;-87
2024/01/02 00:47:26;;;;;;;3.40;1.27;;;5.80;1.00;;;;;;5087570;28;20060;-87
2024/01/02 00:49:52;;;;;;;0.15;0.15;;;5.70;1.00;;;;;;5084805;28;20485;-87
2024/01/02 00:52:17;;;;;;;1.17;1.10;;;5.70;57.80;;;;;;5068072;28;20090;-87
2024/01/02 00:54:43;;;;;;;5.60;1.02;;;5.70;99.90;;;;;;5086266;28;20069;-87
2024/01/02 00:57:08;;;;;;;0.00;0.00;;;5.70;99.90;;;;;;5071365;28;20131;-87
2024/01/02 00:59:34;;;;;;;0.00;0.00;;;5.60;1.00;;;;;;5091612;28;20048;-87
2024/01/02 01:02:00;;;;;;;1.25;0.65;;;5.60;1.00;;;;;;5095320;28;20055;-87
2024/01/02 01:04:25;;;;;;;0.00;0.00;;;5.70;1.00;;;;;;5103276;28;20048;-87
2024/01/02 01:06:51;;;;;;;0.55;0.20;;;5.60;99.90;;;;;;5081819;28;20070;-87
2024/01/02 01:09:18;;;;;;;0.25;0.20;;;5.60;99.90;;;;;;5071487;28;20059;-88
2024/01/02 01:11:44;;;;;;;1.10;1.00;;;5.50;99.90;;;;;;5109324;28;20055;-88
2024/01/02 01:14:09;;;;;;;0.00;0.00;;;5.50;82.10;;;;;;5103149;28;20485;-88
2024/01/02 01:16:35;;;;;;;0.00;0.00;;;5.50;99.90;;;;;;5091341;28;20066;-89
2024/01/02 01:19:00;;;;;;;0.35;0.35;;;5.50;99.90;;;;;;5061088;28;20044;-89
2024/01/02 01:21:26;;;;;;;0.17;0.17;;;5.50;99.90;;;;;;5083862;28;20064;-89
2024/01/02 01:23:52;;;;;;;0.00;0.00;;;5.50;99.90;;;;;;5088137;28;20051;-90
2024/01/02 01:26:17;;;;;;;0.63;0.30;;;5.60;99.90;;;;;;5076039;28;20052;-90
2024/01/02 01:28:43;;;;;;;0.00;0.00;;;6.30;99.90;;;;;;5110627;28;20040;-90
2024/01/02 01:31:09;;;;;;;0.00;0.00;;;5.60;1.00;;;;;;5110429;28;20380;-89
2024/01/02 01:33:34;;;;;;;0.00;0.00;;;5.70;1.00;;;;;;5110786;28;20024;-90
2024/01/02 01:36:00;;;;;;;0.00;0.00;;;5.60;1.00;;;;;;5091068;28;20162;-90
2024/01/02 01:38:26;;;;;;;0.20;0.20;;;6.60;13.90;;;;;;5086083;28;20067;-89
2024/01/02 01:40:51;;;;;;;0.10;0.10;;;5.70;99.90;;;;;;5080543;28;20056;-88
2024/01/02 01:43:17;;;;;;;0.30;0.30;;;5.60;99.90;;;;;;5066690;28;20127;-88
2024/01/02 01:45:42;;;;;;;1.08;0.75;;;5.70;99.90;;;;;;5085276;28;20102;-87
2024/01/02 01:48:09;;;;;;;0.95;0.75;;;5.70;1.00;;;;;;5092436;28;20044;-88
2024/01/02 01:50:36;;;;;;;0.00;0.00;;;5.70;1.00;;;;;;5084012;28;20051;-88
2024/01/02 01:53:03;;;;;;;0.00;0.00;;;5.70;1.00;;;;;;5101321;28;20968;-88
2024/01/02 01:55:29;;;;;;;1.80;1.17;;;5.70;82.40;;;;;;5099805;28;20062;-88
2024/01/02 01:57:55;;;;;;;0.43;0.10;;;5.80;95.90;;;;;;5093108;28;20413;-88
2024/01/02 02:00:20;;;;;;;0.05;0.05;;;5.80;99.90;;;;;;5066294;28;20040;-88
2024/01/02 02:02:47;;;;;;;0.00;0.00;;;5.80;99.90;;;;;;5065919;28;20055;-88
2024/01/02 02:05:13;;;;;;;0.10;0.10;;;5.80;99.90;;;;;;5067993;28;20112;-88
2024/01/02 02:07:41;;;;;;;0.00;0.00;;;5.80;99.90;;;;;;5077548;28;20044;-88
2024/01/02 02:10:10;;;;;;;0.00;0.00;;;5.70;99.90;;;;;;5064918;28;20082;-88
2024/01/02 02:12:36;;;;;;;0.05;0.05;;;5.80;99.90;;;;;;5073351;28;20074;-85
2024/01/02 02:15:03;;;;;;;0.28;0.22;;;5.80;99.90;;;;;;5070252;28;20479;-86
2024/01/02 02:17:29;;;;;;;0.00;0.00;;;5.80;99.90;;;;;;5061918;28;20053;-86
2024/01/02 02:19:58;;;;;;;0.98;0.73;;;5.90;99.90;;;;;;5093761;28;20048;-86
2024/01/02 02:22:36;;;;;;;0.20;0.20;;;5.90;99.90;;;;;;5095755;28;20485;-87
2024/01/02 02:25:03;;;;;;;0.00;0.00;;;5.90;99.90;;;;;;5105168;28;20126;-87
2024/01/02 02:27:28;;;;;;;0.00;0.00;;;5.90;99.90;;;;;;5093989;28;20109;-87
2024/01/02 02:29:54;;;;;;;0.38;0.15;;;5.90;99.90;;;;;;5066256;28;20052;-86
2024/01/02 02:32:21;;;;;;;0.15;0.15;;;5.90;99.90;;;;;;5065562;28;20054;-87
2024/01/02 02:34:47;;;;;;;2.10;0.65;;;6.00;99.90;;;;;;5066166;28;20062;-86
2024/01/02 02:37:12;;;;;;;2.90;1.08;;;6.00;99.90;;;;;;5065309;28;20040;-87
2024/01/02 02:39:38;;;;;;;0.00;0.00;;;6.00;99.90;;;;;;5065562;28;20044;-86
2024/01/02 02:42:04;;;;;;;0.00;0.00;;;6.00;99.90;;;;;;5065641;28;20055;-87
2024/01/02 02:44:31;;;;;;;0.05;0.05;;;5.90;99.90;;;;;;5045337;28;20053;-87
2024/01/02 02:46:57;;;;;;;1.92;1.75;;;6.00;99.90;;;;;;5029168;28;20048;-87
2024/01/02 02:49:23;;;;;;;0.00;0.00;;;6.00;99.90;;;;;;5050101;28;20040;-87
2024/01/02 02:51:49;;;;;;;0.35;0.32;;;6.00;1.00;;;;;;5045556;28;20053;-86
2024/01/02 02:54:14;;;;;;;0.22;0.22;;;6.00;1.00;;;;;;5079463;28;20040;-86
2024/01/02 02:56:42;;;;;;;0.75;0.57;;;6.00;1.00;;;;;;5065665;28;20132;-86
2024/01/02 02:59:11;;;;;;;0.13;0.13;;;6.00;1.00;;;;;;5070363;28;20044;-86
2024/01/02 03:01:37;;;;;;;0.00;0.00;;;6.00;1.00;;;;;;5064493;28;20056;-86
2024/01/02 03:04:03;;;;;;;0.50;0.40;;;6.10;1.00;;;;;;5065764;28;20048;-86
2024/01/02 03:06:28;;;;;;;0.28;0.28;;;6.10;1.00;;;;;;5095128;28;20065;-86
2024/01/02 03:08:54;;;;;;;0.00;0.00;;;6.10;1.00;;;;;;5066175;28;20677;-86
2024/01/02 03:11:20;;;;;;;0.25;0.25;;;6.10;1.00;;;;;;5056498;28;20609;-86
2024/01/02 03:13:47;;;;;;;0.00;0.00;;;6.00;12.30;;;;;;5057809;28;20047;-86
2024/01/02 03:16:14;;;;;;;0.20;0.20;;;6.00;99.90;;;;;;5068926;28;20083;-86
2024/01/02 03:18:39;;;;;;;0.30;0.30;;;6.00;99.90;;;;;;5092357;28;20049;-86
2024/01/02 03:21:07;;;;;;;0.38;0.38;;;6.00;99.90;;;;;;5064519;28;20114;-86
2024/01/02 03:23:34;;;;;;;0.70;0.70;;;6.00;99.90;;;;;;5043121;28;20432;-86
2024/01/02 03:25:59;;;;;;;0.35;0.35;;;6.00;99.90;;;;;;5068870;28;20109;-87
2024/01/02 03:28:26;;;;;;;3.83;0.98;;;6.00;99.90;;;;;;5068986;28;20067;-86
2024/01/02 03:30:52;;;;;;;0.20;0.20;;;6.40;99.90;;;;;;5066947;28;20044;-86
2024/01/02 03:33:17;;;;;;;0.10;0.10;;;5.90;99.90;;;;;;5054111;28;20071;-86
2024/01/02 03:35:44;;;;;;;0.10;0.10;;;5.90;99.90;;;;;;5072145;28;20048;-86
2024/01/02 03:38:10;;;;;;;0.00;0.00;;;6.00;1.00;;;;;;5083417;28;20041;-86
2024/01/02 03:40:35;;;;;;;0.30;0.20;;;6.00;1.00;;;;;;5065738;28;20058;-86
2024/01/02 03:43:01;;;;;;;0.55;0.55;;;6.00;1.00;;;;;;5064653;28;20044;-87
2024/01/02 03:45:26;;;;;;;0.00;0.00;;;6.00;1.00;;;;;;5048243;28;20111;-86
2024/01/02 03:47:52;;;;;;;0.03;0.03;;;6.00;1.00;;;;;;5080847;28;20404;-86
2024/01/02 03:50:18;;;;;;;0.08;0.08;;;6.00;1.00;;;;;;5083344;28;20052;-86
2024/01/02 03:52:43;;;;;;;0.00;0.00;;;6.00;1.00;;;;;;5057089;28;20455;-86
2024/01/02 03:55:09;;;;;;;1.98;1.00;;;6.00;1.00;;;;;;5064845;28;20080;-86
2024/01/02 03:57:34;;;;;;;0.00;0.00;;;6.70;1.00;;;;;;5064061;28;20486;-86
2024/01/02 04:00:00;;;;;;;0.50;0.50;;;6.00;1.00;;;;;;5064638;28;20062;-86
2024/01/02 04:02:26;;;;;;;0.00;0.00;;;6.00;1.00;;;;;;5062672;28;20052;-86
2024/01/02 04:04:52;;;;;;;0.08;0.08;;;6.00;1.00;;;;;;5067472;28;20040;-86
2024/01/02 04:07:17;;;;;;;0.05;0.05;;;6.00;1.00;;;;;;5067956;28;20481;-86
2024/01/02 04:09:43;;;;;;;0.15;0.15;;;6.00;1.00;;;;;;5092665;28;20510;-86
2024/01/02 04:12:08;;;;;;;0.00;0.00;;;6.00;1.00;;;;;;5070538;28;20076;-86
2024/01/02 04:14:34;;;;;;;1.90;1.20;;;6.00;1.00;;;;;;5074865;28;20412;-86
2024/01/02 04:17:00;;;;;;;0.35;0.35;;;6.00;1.00;;;;;;5069388;28;20097;-86
2024/01/02 04:19:26;;;;;;;0.85;0.75;;;6.00;1.00;;;;;;5070898;28;20048;-87
2024/01/02 04:21:51;;;;;;;0.00;0.00;;;6.00;1.00;;;;;;5067176;28;20489;-86
2024/01/02 04:24:17;;;;;;;0.00;0.00;;;6.00;1.00;;;;;;5066027;28;20052;-87
2024/01/02 04:26:43;;;;;;;7.22;0.90;;;6.00;1.00;;;;;;5074401;28;20150;-86
2024/01/02 04:29:08;;;;;;;0.15;0.08;;;6.00;7.40;;;;;;5088286;28;20048;-86
2024/01/02 04:31:34;;;;;;;0.00;0.00;;;6.10;31.00;;;;;;5067336;28;20098;-86
2024/01/02 04:34:00;;;;;;;0.00;0.00;;;6.00;48.10;;;;;;5093603;28;20043;-86
2024/01/02 04:36:25;;;;;;;0.00;0.00;;;6.00;76.20;;;;;;5071154;28;20080;-86
2024/01/02 04:38:52;;;;;;;0.00;0.00;;;6.00;99.50;;;;;;5068402;28;20048;-86
2024/01/02 04:41:18;;;;;;;0.00;0.00;;;6.00;99.90;;;;;;5070955;28;20130;-86
2024/01/02 04:43:44;;;;;;;0.00;0.00;;;6.00;99.90;;;;;;5059079;28;20550;-85
2024/01/02 04:46:10;;;;;;;0.85;0.65;;;6.00;99.90;;;;;;5063986;28;20588;-85
2024/01/02 04:48:36;;;;;;;0.00;0.00;;;6.00;99.90;;;;;;5101716;28;20458;-85
2024/01/02 04:51:02;;;;;;;0.20;0.10;;;6.00;99.90;;;;;;5067945;28;20079;-85
2024/01/02 04:53:28;;;;;;;0.43;0.35;;;6.00;99.90;;;;;;5060112;28;20123;-85
2024/01/02 04:55:54;;;;;;;1.08;0.77;;;6.00;99.90;;;;;;5095038;28;20124;-85
2024/01/02 04:58:20;;;;;;;0.10;0.10;;;6.00;99.90;;;;;;5068198;28;20040;-85
2024/01/02 05:00:45;;;;;;;0.00;0.00;;;6.00;99.90;;;;;;5069800;28;20058;-85
2024/01/02 05:03:11;;;;;;;0.40;0.40;;;6.00;99.90;;;;;;5106205;28;20052;-85
2024/01/02 05:05:37;;;;;;;0.00;0.00;;;6.10;99.90;;;;;;5087136;28;20412;-85
2024/01/02 05:08:03;;;;;;;12.40;1.38;;;6.00;99.90;;;;;;5094713;28;20052;-84
2024/01/02 05:10:29;;;;;;;0.00;0.00;;;6.00;99.90;;;;;;5066880;28;20047;-84
2024/01/02 05:12:54;;;;;;;0.00;0.00;;;6.50;99.90;;;;;;5093041;28;20046;-84
2024/01/02 05:15:20;;;;;;;0.00;0.00;;;6.00;99.90;;;;;;5065039;28;20071;-86
2024/01/02 05:17:46;;;;;;;0.00;0.00;;;6.00;99.90;;;;;;5066630;28;20055;-86
2024/01/02 05:20:12;;;;;;;0.00;0.00;;;6.00;99.90;;;;;;5067386;28;20051;-86
2024/01/02 05:22:37;;;;;;;0.00;0.00;;;6.00;99.90;;;;;;5077307;28;20059;-85
2024/01/02 05:25:03;;;;;;;0.05;0.05;;;6.00;99.90;;;;;;5085670;28;20454;-86
2024/01/02 05:27:29;;;;;;;0.20;0.20;;;6.00;99.90;;;;;;5065200;28;20073;-85
2024/01/02 05:29:54;;;;;;;0.00;0.00;;;6.00;99.90;;;;;;5091825;28;20055;-85
2024/01/02 05:32:20;;;;;;;0.05;0.05;;;6.10;99.90;;;;;;5067358;28;20044;-85
2024/01/02 05:34:46;;;;;;;2.63;0.57;;;6.00;99.90;;;;;;5096159;28;20134;-85
2024/01/02 05:37:11;;;;;;;0.20;0.15;;;6.60;99.90;;;;;;5078826;28;20053;-85
2024/01/02 05:39:37;;;;;;;0.20;0.20;;;6.10;99.90;;;;;;5093006;28;20506;-86
2024/01/02 05:42:03;;;;;;;0.00;0.00;;;6.10;99.90;;;;;;5085051;28;20051;-85
2024/01/02 05:44:28;;;;;;;0.45;0.30;;;6.00;99.90;;;;;;5066251;28;20071;-86
2024/01/02 05:46:54;;;;;;;0.00;0.00;;;6.10;99.90;;;;;;5093006;28;20066;-85
2024/01/02 05:49:19;;;;;;;0.00;0.00;;;6.10;99.90;;;;;;5092545;28;20493;-85
2024/01/02 05:51:45;;;;;;;0.25;0.25;;;6.10;99.90;;;;;;5092083;28;20036;-85
2024/01/02 05:54:11;;;;;;;0.00;0.00;;;6.10;99.90;;;;;;5092331;28;20517;-84
2024/01/02 05:56:36;;;;;;;0.00;0.00;;;6.10;99.90;;;;;;5095115;28;20114;-86
2024/01/02 05:59:02;;;;;;;1.02;0.52;;;6.10;99.90;;;;;;5066172;28;20048;-85
2024/01/02 06:01:28;;;;;;;0.00;0.00;;;6.10;99.90;;;;;;5065882;28;20052;-84
2024/01/02 06:03:53;;;;;;;0.00;0.00;;;6.10;99.90;;;;;;5085118;28;20047;-85
2024/01/02 06:06:19;;;;;;;0.00;0.00;;;6.10;99.90;;;;;;5093336;28;20036;-85
2024/01/02 06:08:45;;;;;;;0.00;0.00;;;6.10;99.90;;;;;;5100883;28;20501;-86
2024/01/02 06:11:11;;;;;;;0.00;0.00;;;6.10;99.90;;;;;;5058532;28;20505;-86
2024/01/02 06:13:37;;;;;;;0.10;0.10;;;6.10;99.90;;;;;;5091139;28;20047;-85
2024/01/02 06:16:02;;;;;;;0.10;0.10;;;6.10;99.90;;;;;;5066782;28;20119;-85
2024/01/02 06:18:28;;;;;;;0.45;0.25;;;6.10;99.90;;;;;;5069035;28;20513;-85
2024/01/02 06:20:55;;;;;;;0.00;0.00;;;7.30;99.90;;;;;;5095345;28;20062;-85
2024/01/02 06:23:21;;;;;;;0.00;0.00;;;6.80;99.90;;;;;;5091749;28;20028;-85
2024/01/02 06:25:46;;;;;;;0.00;0.00;;;6.10;99.90;;;;;;5091955;28;20412;-85
2024/01/02 06:28:12;;;;;;;0.00;0.00;;;6.10;99.90;;;;;;5085600;28;20050;-85
2024/01/02 06:30:38;;;;;;;0.15;0.15;;;6.10;99.90;;;;;;5072668;28;20496;-85
2024/01/02 06:33:04;;;;;;;0.00;0.00;;;6.20;99.90;;;;;;5056770;28;20115;-85
2024/01/02 06:35:29;;;;;;;0.00;0.00;;;6.10;99.90;;;;;;5091817;28;20135;-85
2024/01/02 06:37:55;;;;;;;0.20;0.20;;;6.20;99.90;;;;;;5064989;28;20104;-85
2024/01/02 06:40:20;;;;;;;0.00;0.00;;;6.20;99.90;;;;;;5063766;28;20048;-86
2024/01/02 06:42:46;;;;;;;0.00;0.00;;;6.20;99.90;;;;;;5070306;28;20523;-85
2024/01/02 06:45:11;;;;;;;0.00;0.00;;;6.20;99.90;;;;;;5048309;28;20081;-85
2024/01/02 06:47:37;;;;;;;0.00;0.00;;;6.10;99.90;;;;;;5065016;28;20044;-86
2024/01/02 06:50:03;;;;;;;0.00;0.00;;;6.20;99.90;;;;;;5065184;28;20048;-85
2024/01/02 06:52:29;;;;;;;3.40;1.38;;;6.20;99.90;;;;;;5091484;28;20043;-85
2024/01/02 06:54:54;;;;;;;0.00;0.00;;;6.20;99.90;;;;;;5059527;28;20044;-85
2024/01/02 06:57:20;;;;;;;0.00;0.00;;;6.20;99.90;;;;;;5088851;28;20116;-85
2024/01/02 06:59:46;;;;;;;0.05;0.05;;;6.20;99.90;;;;;;5065917;28;20043;-85
2024/01/02 07:02:13;;;;;;;0.00;0.00;;;6.30;99.90;;;;;;5090743;28;20059;-86
2024/01/02 07:04:38;;;;;;;0.00;0.00;;;6.30;99.90;;;;;;5064711;28;20544;-86
2024/01/02 07:07:05;;;;;;;0.00;0.00;;;6.30;99.90;;;;;;5093772;28;20510;-85
2024/01/02 07:09:31;;;;;;;0.00;0.00;;;6.30;99.90;;;;;;5095291;28;20560;-85
2024/01/02 07:11:56;;;;;;;0.00;0.00;;;6.30;99.90;;;;;;5067032;28;20056;-86
2024/01/02 07:14:23;;;;;;;0.00;0.00;;;6.30;99.90;;;;;;5084759;28;20872;-86
2024/01/02 07:16:49;;;;;;;0.00;0.00;;;6.40;99.90;;;;;;5062452;28;20052;-86
2024/01/02 07:19:14;;;;;;;0.00;0.00;;;6.40;99.90;;;;;;5102388;28;20039;-85
2024/01/02 07:21:40;;;;;;;0.00;0.00;;;6.40;99.90;;;;;;5069874;28;20039;-85
2024/01/02 07:24:05;;;;;;;0.00;0.00;;;6.40;99.90;;;;;;5062082;28;20135;-86
2024/01/02 07:26:31;;;;;;;0.00;0.00;;;6.40;99.90;;;;;;5072703;28;20044;-86
2024/01/02 07:28:57;;;;;;;0.00;0.00;;;7.30;99.90;;;;;;5064377;28;20109;-86
2024/01/02 07:31:23;;;;;;;0.00;0.00;;;6.40;99.90;;;;;;5093095;28;20052;-86
2024/01/02 07:33:49;;;;;;;0.00;0.00;;;6.50;99.90;;;;;;5089291;28;20036;-86
2024/01/02 07:36:16;;;;;;;0.00;0.00;;;6.50;99.90;;;;;;5091031;28;20048;-86
2024/01/02 07:38:42;;;;;;;0.00;0.00;;;7.90;99.90;;;;;;5093690;28;20286;-85
2024/01/02 07:41:07;;;;;;;0.00;0.00;;;6.60;99.90;;;;;;5104653;28;20489;-86
2024/01/02 07:43:33;;;;;;;0.00;0.00;;;6.70;99.90;;;;;;5086027;28;20352;-86
2024/01/02 07:46:02;;;;;;;0.00;0.00;;;6.70;99.90;;;;;;5089439;28;20548;-85
2024/01/02 07:48:28;;;;;;;0.10;0.10;;;6.70;99.90;;;;;;5079499;28;20429;-85
2024/01/02 07:50:54;;;;;;;0.00;0.00;;;6.80;99.90;;;;;;5074541;28;20047;-85
2024/01/02 07:53:20;;;;;;;0.00;0.00;;;6.80;99.90;;;;;;5052764;28;20054;-85
2024/01/02 07:55:47;;;;;;;0.00;0.00;;;6.90;99.90;;;;;;5062571;28;20131;-86
2024/01/02 07:58:12;;;;;;;0.00;0.00;;;7.00;99.90;;;;;;5062322;28;20485;-86
2024/01/02 08:00:38;;;;;;;0.00;0.00;;;7.00;99.90;;;;;;5054999;28;20047;-86
2024/01/02 08:03:04;;;;;;;0.00;0.00;;;7.10;99.90;;;;;;5073085;28;20125;-87
2024/01/02 08:05:29;;;;;;;0.00;0.00;;;7.10;99.90;;;;;;5096604;28;20051;-86
2024/01/02 08:07:55;;;;;;;0.00;0.00;;;7.20;99.90;;;;;;5092143;28;20048;-86
2024/01/02 08:10:20;;;;;;;0.00;0.00;;;7.30;99.90;;;;;;5094476;28;20051;-86
2024/01/02 08:12:46;;;;;;;0.00;0.00;;;7.30;99.90;;;;;;5057734;28;20234;-86
2024/01/02 08:15:12;;;;;;;0.00;0.00;;;7.30;99.90;;;;;;5060927;28;20049;-86
2024/01/02 08:17:37;;;;;;;0.00;0.00;;;7.30;99.90;;;;;;5062900;28;20125;-86
2024/01/02 08:20:05;;;;;;;0.05;0.05;;;7.40;99.90;;;;;;5078200;28;20047;-86
2024/01/02 08:22:30;;;;;;;0.05;0.05;;;7.40;99.90;;;;;;5083140;28;20194;-86
2024/01/02 08:24:56;;;;;;;0.00;0.00;;;7.50;99.90;;;;;;5097423;28;20054;-86
2024/01/02 08:27:25;;;;;;;0.00;0.00;;;7.60;99.90;;;;;;5049176;28;20048;-86
2024/01/02 08:29:51;;;;;;;0.00;0.00;;;7.70;99.90;;;;;;5068858;28;20052;-86
2024/01/02 08:32:17;;;;;;;0.00;0.00;;;7.80;99.90;;;;;;5043875;28;20036;-86
2024/01/02 08:34:43;;;;;;;0.00;0.00;;;7.80;99.90;;;;;;5097075;28;20048;-86
2024/01/02 08:37:09;;;;;;;0.10;0.10;;;7.90;99.90;;;;;;5062367;28;20040;-86
2024/01/02 08:39:35;;;;;;;0.00;0.00;;;7.90;99.90;;;;;;5085632;28;20155;-86
2024/01/02 08:42:01;;;;;;;0.00;0.00;;;8.00;99.90;;;;;;5079067;28;20047;-87
2024/01/02 08:44:26;;;;;;;0.00;0.00;;;8.00;99.90;;;;;;5061263;28;20079;-86
2024/01/02 08:46:52;;;;;;;0.00;0.00;;;8.10;99.90;;;;;;5100325;28;20040;-87
2024/01/02 08:49:18;;;;;;;0.00;0.00;;;8.20;99.90;;;;;;5059535;28;20039;-86
2024/01/02 08:51:44;;;;;;;0.65;0.25;;;8.30;99.90;;;;;;5045097;28;20079;-86
2024/01/02 08:54:10;;;;;;;0.13;0.13;;;8.40;99.90;;;;;;5089977;28;20121;-86
2024/01/02 08:56:35;;;;;;;0.45;0.05;;;8.60;99.90;;;;;;5068877;28;20063;-86
2024/01/02 08:59:02;;;;;;;0.98;0.20;;;8.70;99.90;;;;;;5080884;28;20091;-86
2024/01/02 09:01:28;;;;;;;1.25;0.25;;;8.80;99.90;;;;;;5096081;28;20060;-86
2024/01/02 09:03:54;;;;;;;0.00;0.00;;;8.80;99.90;;;;;;5094459;28;20086;-86
2024/01/02 09:06:19;;;;;;;1.27;0.75;;;9.00;99.90;;;;;;5099651;28;20131;-86
2024/01/02 09:08:46;;;;;;;2.47;0.80;;;10.10;99.90;;;;;;5076574;28;20406;-86
2024/01/02 09:11:12;;;;;;;0.38;0.38;;;9.10;99.90;;;;;;5096905;28;20423;-86
2024/01/02 09:13:38;;;;;;;0.35;0.35;;;9.10;99.90;;;;;;5090195;28;20457;-86
2024/01/02 09:16:04;;;;;;;10.18;1.40;;;9.20;99.90;;;;;;5095854;28;20119;-86
2024/01/02 09:18:30;;;;;;;4.30;1.13;;;9.30;99.90;;;;;;5095046;28;20393;-86
2024/01/02 09:20:57;;;;;;;1.08;0.50;;;9.40;99.90;;;;;;5096909;28;20073;-86
2024/01/02 09:23:23;;;;;;;0.73;0.57;;;9.50;99.90;;;;;;5060910;28;20055;-86
2024/01/02 09:25:52;;;;;;;0.70;0.57;;;9.60;99.90;;;;;;5070428;28;20048;-86
2024/01/02 09:28:20;;;;;;;6.32;1.90;;;9.60;99.90;;;;;;5060363;28;20482;-86
2024/01/02 09:30:46;;;;;;;3.33;1.25;;;9.60;99.90;;;;;;5065394;28;20472;-86
2024/01/02 09:33:12;;;;;;;0.10;0.10;;;9.60;99.90;;;;;;5053236;28;20067;-86
2024/01/02 09:35:38;;;;;;;0.55;0.55;;;9.70;99.90;;;;;;5072398;28;20121;-86
2024/01/02 09:38:04;;;;;;;0.50;0.38;;;9.70;99.90;;;;;;5064080;28;20040;-86
2024/01/02 09:40:33;;;;;;;0.55;0.38;;;9.80;99.90;;;;;;5088735;28;20051;-86
2024/01/02 09:43:01;;;;;;;0.35;0.32;;;9.80;99.90;;;;;;5089119;28;20413;-86
2024/01/02 09:45:56;;;;;;;2.30;0.85;;;9.80;99.90;;;;;;5093762;28;20134;-86
2024/01/02 09:48:37;;;;;;;0.88;0.63;;;9.80;99.90;;;;;;5053664;28;20055;-86
2024/01/02 09:51:06;;;;;;;3.10;0.35;;;9.80;99.90;;;;;;5087268;28;20124;-86
2024/01/02 09:53:54;;;;;;;0.47;0.47;;;9.80;99.90;;;;;;5076052;28;20682;-86
2024/01/02 09:56:30;;;;;;;0.55;0.55;;;9.90;99.90;;;;;;5087398;28;20536;-86
2024/01/02 09:59:14;;;;;;;0.28;0.28;;;9.90;99.90;;;;;;5092722;28;20086;-86
2024/01/02 10:01:51;;;;;;;0.55;0.55;;;10.10;99.90;;;;;;5091062;28;20563;-86
2024/01/02 10:04:35;;;;;;;1.27;1.05;;;10.00;99.90;;;;;;5097378;28;20096;-86
2024/01/02 10:07:28;;;;;;;6.28;1.48;;;11.30;99.90;;;;;;5098614;28;20047;-86
2024/01/02 10:10:33;;;;;;;1.70;1.60;;;10.10;99.90;;;;;;5059180;28;20494;-85
2024/01/02 10:13:24;;;;;;;0.30;0.30;;;10.10;99.90;;;;;;5080587;28;20054;-85
2024/01/02 10:16:25;;;;;;;1.00;0.85;;;10.10;99.90;;;;;;5093160;28;20086;-86
2024/01/02 10:19:22;;;;;;;0.88;0.80;;;10.20;99.90;;;;;;5034688;28;20052;-86
2024/01/02 10:22:24;;;;;;;0.80;0.70;;;10.20;99.90;;;;;;5049572;28;20063;-85
2024/01/02 10:25:04;;;;;;;2.60;0.43;;;10.20;99.90;;;;;;5085778;28;20124;-85
2024/01/02 10:28:14;;;;;;;19.48;1.45;;;10.20;99.90;;;;;;5075804;28;20483;-85
2024/01/02 10:30:58;;;;;;;4.03;2.45;;;10.20;99.90;;;;;;5066657;28;20403;-85
2024/01/02 10:33:34;;;;;;;0.22;0.20;;;10.30;99.90;;;;;;5092595;28;20075;-86
2024/01/02 10:36:04;;;;;;;0.98;0.88;;;10.30;99.90;;;;;;5093442;28;20051;-86
2024/01/02 10:38:43;;;;;;;7.22;1.17;;;10.30;99.90;;;;;;5089757;28;20043;-85
2024/01/02 10:41:39;;;;;;;1.25;0.55;;;10.30;99.90;;;;;;5037886;28;20505;-86
2024/01/02 10:44:20;;;;;;;0.73;0.68;;;10.30;99.90;;;;;;5057530;28;20039;-86
2024/01/02 10:46:51;;;;;;;0.10;0.10;;;10.30;99.90;;;;;;5092325;28;20055;-86
2024/01/02 10:49:35;;;;;;;1.77;1.67;;;10.30;99.90;;;;;;5067473;28;20177;-85
2024/01/02 10:52:05;;;;;;;0.00;0.00;;;10.40;99.90;;;;;;5072224;28;20499;-85
2024/01/02 10:54:41;;;;;;;0.00;0.00;;;10.40;99.90;;;;;;5092425;28;20339;-86
2024/01/02 10:57:15;;;;;;;0.22;0.22;;;10.40;99.90;;;;;;5089208;28;20040;-85
2024/01/02 11:00:08;;;;;;;0.30;0.30;;;10.50;99.90;;;;;;5089938;28;20048;-86
2024/01/02 11:02:57;;;;;;;0.00;0.00;;;10.50;99.90;;;;;;5084553;28;20537;-85
2024/01/02 11:05:29;;;;;;;0.15;0.15;;;10.40;99.90;;;;;;5089610;28;20047;-85
2024/01/02 11:08:40;;;;;;;0.50;0.50;;;10.50;99.90;;;;;;5100059;28;20485;-85
2024/01/02 11:11:09;;;;;;;2.53;0.73;;;10.60;99.90;;;;;;5045741;28;20064;-85
2024/01/02 11:13:38;;;;;;;0.90;0.73;;;10.60;99.90;;;;;;5063277;28;20046;-85
2024/01/02 11:16:13;;;;;;;0.65;0.30;;;10.60;99.90;;;;;;5089333;28;20046;-85
2024/01/02 11:18:44;;;;;;;0.00;0.00;;;10.60;99.90;;;;;;5062600;28;20047;-85
2024/01/02 11:21:33;;;;;;;0.00;0.00;;;10.60;99.90;;;;;;5091012;28;20413;-86
2024/01/02 11:24:05;;;;;;;0.85;0.63;;;10.60;99.90;;;;;;5075891;28;20057;-85
2024/01/02 11:26:35;;;;;;;0.30;0.30;;;10.70;99.90;;;;;;5056435;28;20036;-85
2024/01/02 11:29:02;;;;;;;0.00;0.00;;;10.60;99.90;;;;;;5090438;28;20127;-85
2024/01/02 11:31:31;;;;;;;0.00;0.00;;;10.60;99.90;;;;;;5085600;28;20047;-85
2024/01/02 11:34:18;;;;;;;0.95;0.30;;;10.60;99.90;;;;;;5076571;28;20563;-85
2024/01/02 11:37:08;;;;;;;0.00;0.00;;;10.70;99.90;;;;;;5089800;28;20557;-85
2024/01/02 11:39:47;;;;;;;0.10;0.10;;;10.80;99.90;;;;;;5093361;28;20048;-85
2024/01/02 11:42:38;;;;;;;0.70;0.70;;;10.70;99.90;;;;;;5094079;28;20058;-85
2024/01/02 11:45:15;;;;;;;1.13;1.02;;;10.70;99.90;;;;;;5085223;28;20074;-85
2024/01/02 11:48:14;;;;;;;0.22;0.10;;;10.70;99.90;;;;;;5091061;28;20040;-85
2024/01/02 11:51:02;;;;;;;0.55;0.55;;;10.60;99.90;;;;;;5091505;28;20055;-85
2024/01/02 11:53:57;;;;;;;0.55;0.55;;;10.60;99.90;;;;;;5083615;28;20393;-85
2024/01/02 11:56:23;;;;;;;1.25;1.08;;;10.60;99.90;;;;;;5079038;28;20097;-85
2024/01/02 11:59:06;;;;;;;0.05;0.05;;;10.60;99.90;;;;;;5090096;28;20120;-85
2024/01/02 12:01:42;;;;;;;0.00;0.00;;;10.60;99.90;;;;;;5091672;28;20467;-85
2024/01/02 12:04:22;;;;;;;;;;;10.60;99.90;;;;;;5053656;28;20051;-85
2024/01/02 12:07:10;;;;;;;0.25;0.25;;;10.60;99.90;;;;;;5061267;28;20270;-85
2024/01/02 12:09:40;;;;;;;0.32;0.22;;;10.60;99.90;;;;;;5088401;28;20083;-85
2024/01/02 12:12:35;;;;;;;3.60;0.47;;;10.60;99.90;;;;;;5083945;28;20068;-85
2024/01/02 12:15:34;;;;;;;0.80;0.65;;;10.60;99.90;;;;;;5066586;28;20055;-85
2024/01/02 12:18:05;;;;;;;0.63;0.52;;;10.60;99.90;;;;;;5082936;28;20048;-85
2024/01/02 12:20:55;;;;;;;0.00;0.00;;;10.50;99.90;;;;;;5095240;28;20123;-85
2024/01/02 12:23:23;;;;;;;1.58;0.82;;;10.50;99.90;;;;;;5064302;28;20545;-86
2024/01/02 12:25:49;;;;;;;1.88;1.08;;;10.50;99.90;;;;;;5093344;28;20498;-85
2024/01/02 12:28:18;;;;;;;0.52;0.52;;;10.40;99.90;;;;;;5092997;28;20139;-85
2024/01/02 12:31:01;;;;;;;9.73;1.70;;;10.50;99.90;;;;;;5065130;28;20052;-86
2024/01/02 12:33:34;;;;;;;0.20;0.13;;;10.50;99.90;;;;;;5090523;28;20055;-86
2024/01/02 12:36:23;;;;;;;0.00;0.00;;;10.40;99.90;;;;;;5069300;28;20048;-85
2024/01/02 12:38:51;;;;;;;0.32;0.17;;;10.40;99.90;;;;;;5085027;28;20087;-85
2024/01/02 12:41:25;;;;;;;1.85;1.00;;;10.40;99.90;;;;;;5092149;28;20051;-85
2024/01/02 12:43:54;;;;;;;0.75;0.28;;;10.40;99.90;;;;;;5092545;28;20040;-85
2024/01/02 12:46:39;;;;;;;1.33;0.65;;;10.40;99.90;;;;;;5092969;28;20556;-86
2024/01/02 12:49:15;;;;;;;0.00;0.00;;;10.40;99.90;;;;;;5088978;28;20483;-85
2024/01/02 12:51:45;;;;;;;1.33;0.43;;;11.60;99.90;;;;;;5095063;28;20183;-85
2024/01/02 12:54:15;;;;;;;4.13;0.43;;;10.40;99.90;;;;;;5089595;28;20047;-85
2024/01/02 12:56:45;;;;;;;3.13;1.77;;;10.30;99.90;;;;;;5094616;28;20456;-86
2024/01/02 12:59:11;;;;;;;0.52;0.52;;;10.40;99.90;;;;;;5095217;28;20051;-85
2024/01/02 13:01:37;;;;;;;0.98;0.45;;;10.40;99.90;;;;;;5095805;28;20056;-85
2024/01/02 13:04:03;;;;;;;1.95;1.25;;;10.30;99.90;;;;;;5090358;28;20051;-86
2024/01/02 13:06:29;;;;;;;1.27;0.63;;;10.30;99.90;;;;;;5097785;28;20040;-85